Time;durP1;ratioP1;P1;durP2;ratioP2;P2;SDS_P1;SDS_P2;PMS_P1;PMS_P2;Temp;Humidity;BMP_temperature;BMP_pressure;BME280_temperature;BME280_humidity;BME280_pressure;Samples;Min_cycle;Max_cycle;Signal;HPM_P1;HPM_P2
2022/01/24 00:01:42;;;;;;;5.05;4.07;;;6.30;99.90;;;;;;5031178;28;20053;-76
2022/01/24 00:04:08;;;;;;;5.85;3.88;;;6.20;99.90;;;;;;5046061;28;20052;-76
2022/01/24 00:06:35;;;;;;;5.70;3.83;;;6.20;99.90;;;;;;5047230;28;20068;-77
2022/01/24 00:09:02;;;;;;;7.85;4.20;;;6.20;99.90;;;;;;5029866;28;20135;-76
2022/01/24 00:17:17;;;;;;;4.70;3.88;;;6.20;99.90;;;;;;5045892;28;20120;-76
2022/01/24 00:27:56;;;;;;;6.03;3.55;;;6.10;99.90;;;;;;5018769;28;20438;-77
2022/01/24 00:30:22;;;;;;;5.35;3.50;;;6.10;99.90;;;;;;5045976;28;20469;-77
2022/01/24 00:32:48;;;;;;;5.32;3.83;;;6.10;99.90;;;;;;5046658;28;20405;-76
2022/01/24 00:35:13;;;;;;;7.03;3.83;;;6.10;99.90;;;;;;5013058;28;20127;-76
2022/01/24 00:37:39;;;;;;;6.63;3.88;;;7.40;99.90;;;;;;5046404;28;20033;-77
2022/01/24 00:40:06;;;;;;;5.18;3.78;;;6.10;99.90;;;;;;5045933;28;20069;-76
2022/01/24 00:55:57;;;;;;;9.98;3.58;;;6.00;99.90;;;;;;5031581;28;20063;-77
2022/01/24 00:58:22;;;;;;;4.57;3.55;;;6.00;99.90;;;;;;5012659;28;20037;-76
2022/01/24 01:00:49;;;;;;;5.00;3.47;;;6.00;99.90;;;;;;5046058;28;20055;-77
2022/01/24 01:03:14;;;;;;;4.88;3.75;;;6.00;99.90;;;;;;5046334;28;20859;-76
2022/01/24 01:05:58;;;;;;;6.40;3.60;;;6.00;99.90;;;;;;5045557;28;20041;-76
2022/01/24 01:19:19;;;;;;;6.07;3.38;;;6.00;99.90;;;;;;5046167;28;20500;-76
2022/01/24 01:21:45;;;;;;;4.13;3.05;;;5.90;99.90;;;;;;5029302;28;20498;-76
2022/01/24 01:24:11;;;;;;;3.70;2.92;;;5.90;99.90;;;;;;5012456;28;20076;-76
2022/01/24 01:26:46;;;;;;;6.93;3.60;;;5.90;99.90;;;;;;5045549;28;20560;-76
2022/01/24 01:29:23;;;;;;;3.13;2.35;;;5.90;99.90;;;;;;5029533;28;20083;-77
2022/01/24 01:32:10;;;;;;;4.13;3.33;;;5.90;99.90;;;;;;5030917;28;20041;-76
2022/01/24 01:53:59;;;;;;;6.00;3.28;;;5.80;99.90;;;;;;5031078;28;20049;-77
2022/01/24 01:56:25;;;;;;;4.18;2.63;;;5.70;99.90;;;;;;5029969;28;20521;-77
2022/01/24 01:58:50;;;;;;;5.78;3.50;;;5.70;99.90;;;;;;5046205;28;20048;-77
2022/01/24 02:01:16;;;;;;;5.05;3.17;;;5.70;99.90;;;;;;5046387;28;20490;-77
2022/01/24 02:03:41;;;;;;;7.15;3.30;;;5.80;99.90;;;;;;5045541;28;20044;-77
2022/01/24 02:06:07;;;;;;;4.43;3.00;;;5.70;99.90;;;;;;5044672;28;20379;-77
2022/01/24 02:08:33;;;;;;;8.07;2.92;;;5.70;99.90;;;;;;5044071;28;20124;-77
2022/01/24 02:11:00;;;;;;;4.20;2.83;;;5.70;99.90;;;;;;5011971;28;20068;-77
2022/01/24 02:13:27;;;;;;;4.32;2.42;;;5.70;99.90;;;;;;5045954;28;20386;-77
2022/01/24 02:25:55;;;;;;;4.50;2.83;;;5.60;99.90;;;;;;5043872;28;20113;-77
2022/01/24 02:28:23;;;;;;;7.22;3.40;;;5.60;99.90;;;;;;5027675;28;20081;-77
2022/01/24 02:33:17;;;;;;;6.50;2.95;;;5.60;99.90;;;;;;5043866;28;20053;-77
2022/01/24 02:35:43;;;;;;;4.10;3.03;;;5.60;99.90;;;;;;5043956;28;20037;-77
2022/01/24 02:46:01;;;;;;;3.95;2.72;;;5.60;99.90;;;;;;5028751;28;20088;-77
2022/01/24 02:49:10;;;;;;;5.60;3.05;;;5.50;99.90;;;;;;5030622;28;20077;-77
2022/01/24 02:51:47;;;;;;;5.65;2.78;;;5.50;99.90;;;;;;5027501;28;20037;-77
2022/01/24 02:54:31;;;;;;;4.72;3.30;;;5.50;99.90;;;;;;5012688;28;20459;-77
2022/01/24 02:56:57;;;;;;;5.00;2.83;;;5.50;99.90;;;;;;5043662;28;20037;-77
2022/01/24 02:59:24;;;;;;;4.22;2.85;;;5.50;99.90;;;;;;5043203;28;20399;-77
2022/01/24 03:01:51;;;;;;;4.07;2.90;;;5.50;99.90;;;;;;5043646;28;20051;-77
2022/01/24 03:04:17;;;;;;;4.47;2.85;;;5.50;99.90;;;;;;5043160;28;20099;-75
2022/01/24 03:06:43;;;;;;;6.25;3.25;;;5.50;99.90;;;;;;5027024;28;20041;-77
2022/01/24 03:09:10;;;;;;;4.05;2.75;;;5.40;99.90;;;;;;5043495;28;20090;-77
2022/01/24 03:14:18;;;;;;;6.68;2.83;;;5.40;99.90;;;;;;5045148;28;20402;-77
2022/01/24 03:16:44;;;;;;;3.63;2.78;;;5.50;99.90;;;;;;5044247;28;20559;-77
2022/01/24 03:19:10;;;;;;;3.75;2.92;;;5.40;99.90;;;;;;5044184;28;20410;-77
2022/01/24 03:21:36;;;;;;;4.07;2.88;;;5.40;99.90;;;;;;5027126;28;20045;-77
2022/01/24 03:24:03;;;;;;;7.10;3.00;;;5.40;99.90;;;;;;5027477;28;20400;-77
2022/01/24 03:26:28;;;;;;;6.95;3.00;;;5.40;99.90;;;;;;5043549;28;20040;-77
2022/01/24 03:28:54;;;;;;;5.28;3.25;;;5.40;99.90;;;;;;5044533;28;20045;-77
2022/01/24 03:31:20;;;;;;;7.57;3.67;;;5.50;99.90;;;;;;5044894;28;20057;-77
2022/01/24 03:33:46;;;;;;;5.78;3.58;;;5.40;99.90;;;;;;5047142;28;20385;-77
2022/01/24 03:36:11;;;;;;;5.45;3.03;;;5.40;99.90;;;;;;5048984;28;20041;-77
2022/01/24 03:38:37;;;;;;;5.13;3.65;;;5.40;99.90;;;;;;5048538;28;20083;-77
2022/01/24 03:41:03;;;;;;;5.68;3.80;;;5.40;99.90;;;;;;5048947;28;20638;-77
2022/01/24 03:43:29;;;;;;;6.65;3.70;;;5.40;99.90;;;;;;5048939;28;20045;-77
2022/01/24 03:48:53;;;;;;;4.78;3.42;;;5.40;99.90;;;;;;5044083;28;20365;-77
2022/01/24 03:51:20;;;;;;;7.30;3.30;;;5.40;99.90;;;;;;5046953;28;20030;-77
2022/01/24 03:53:47;;;;;;;6.75;3.80;;;5.40;99.90;;;;;;5048651;28;20052;-77
2022/01/24 03:56:13;;;;;;;5.00;3.10;;;5.40;99.90;;;;;;5048371;28;20128;-77
2022/01/24 03:58:40;;;;;;;6.80;3.95;;;5.40;99.90;;;;;;5048361;28;20049;-77
2022/01/24 04:01:07;;;;;;;5.35;3.58;;;5.40;99.90;;;;;;5046647;28;20049;-77
2022/01/24 04:03:34;;;;;;;7.57;3.65;;;5.40;99.90;;;;;;5047726;28;20056;-77
2022/01/24 04:06:00;;;;;;;5.95;3.50;;;5.40;99.90;;;;;;5048468;28;20151;-77
2022/01/24 04:08:26;;;;;;;5.53;3.15;;;5.40;99.90;;;;;;5029714;28;20060;-77
2022/01/24 04:10:55;;;;;;;6.53;3.70;;;5.40;99.90;;;;;;5048750;28;20033;-77
2022/01/24 04:15:59;;;;;;;5.20;4.07;;;5.40;99.90;;;;;;5048026;28;20056;-77
2022/01/24 04:18:51;;;;;;;11.55;4.35;;;5.40;99.90;;;;;;5046535;28;20049;-77
2022/01/24 04:21:21;;;;;;;8.32;3.90;;;5.40;99.90;;;;;;5046106;28;20049;-77
2022/01/24 04:23:53;;;;;;;6.70;4.13;;;5.40;99.90;;;;;;5030012;28;20053;-76
2022/01/24 04:26:19;;;;;;;6.28;3.80;;;5.40;99.90;;;;;;5046217;28;20555;-77
2022/01/24 04:28:45;;;;;;;8.40;4.35;;;5.30;99.90;;;;;;5046747;28;20045;-77
2022/01/24 04:31:11;;;;;;;8.27;4.90;;;5.40;99.90;;;;;;5013718;28;20490;-77
2022/01/24 04:33:36;;;;;;;9.88;4.57;;;5.40;99.90;;;;;;5045893;28;20044;-77
2022/01/24 04:36:03;;;;;;;8.38;4.07;;;5.40;99.90;;;;;;5029684;28;20048;-77
2022/01/24 04:38:28;;;;;;;13.23;5.13;;;5.40;99.90;;;;;;5012878;28;20045;-77
2022/01/24 04:40:59;;;;;;;7.30;4.43;;;5.40;99.90;;;;;;5046309;28;20064;-77
2022/01/24 04:43:51;;;;;;;5.53;4.13;;;5.40;99.90;;;;;;5029295;28;20055;-77
2022/01/24 04:46:48;;;;;;;7.60;4.80;;;5.40;99.90;;;;;;5047516;28;20045;-77
2022/01/24 04:54:42;;;;;;;9.95;5.78;;;5.40;99.90;;;;;;5046175;28;20052;-77
2022/01/24 04:57:21;;;;;;;11.88;6.25;;;5.40;99.90;;;;;;5029184;28;20048;-77
2022/01/24 04:59:48;;;;;;;11.25;5.68;;;5.40;99.90;;;;;;5045186;28;20053;-77
2022/01/24 05:02:19;;;;;;;9.65;6.45;;;5.80;99.90;;;;;;5045901;28;20057;-77
2022/01/24 05:04:45;;;;;;;8.90;5.88;;;5.40;99.90;;;;;;5045560;28;20049;-77
2022/01/24 05:07:11;;;;;;;9.25;5.95;;;5.50;99.90;;;;;;5045920;28;20037;-77
2022/01/24 05:09:45;;;;;;;11.57;6.78;;;5.40;99.90;;;;;;5045492;28;20447;-77
2022/01/24 05:21:11;;;;;;;10.23;6.30;;;5.50;99.90;;;;;;5029149;28;20041;-77
2022/01/24 05:23:33;;;;;;;12.70;7.20;;;5.40;99.90;;;;;;5045496;28;20445;-77
2022/01/24 05:26:01;;;;;;;11.02;6.78;;;5.50;99.90;;;;;;5045146;28;20049;-77
2022/01/24 05:28:28;;;;;;;12.52;7.03;;;5.40;99.90;;;;;;5045097;28;20041;-76
2022/01/24 05:30:54;;;;;;;10.95;6.85;;;5.50;99.90;;;;;;5045437;28;20421;-77
2022/01/24 05:33:20;;;;;;;11.25;6.47;;;6.50;99.90;;;;;;5028495;28;20043;-76
2022/01/24 05:35:45;;;;;;;12.32;7.50;;;5.40;99.90;;;;;;5028949;28;20095;-76
2022/01/24 05:38:11;;;;;;;15.25;8.10;;;5.40;99.90;;;;;;5044512;28;20056;-77
2022/01/24 05:40:38;;;;;;;11.85;7.15;;;5.40;99.90;;;;;;5044936;28;20136;-77
2022/01/24 05:43:06;;;;;;;12.80;7.18;;;5.50;99.90;;;;;;5044951;28;20120;-77
2022/01/24 05:45:33;;;;;;;12.73;6.72;;;5.50;99.90;;;;;;5028183;28;20053;-77
2022/01/24 05:47:59;;;;;;;17.35;7.25;;;5.50;99.90;;;;;;5028200;28;20057;-77
2022/01/24 05:50:25;;;;;;;13.70;7.32;;;5.50;99.90;;;;;;5046065;28;20060;-77
2022/01/24 05:52:50;;;;;;;13.13;7.38;;;5.50;99.90;;;;;;5045122;28;20629;-76
2022/01/24 05:55:17;;;;;;;12.68;7.35;;;5.40;99.90;;;;;;5043833;28;20095;-77
2022/01/24 05:57:43;;;;;;;16.42;7.85;;;6.10;99.90;;;;;;5044691;28;20057;-76
2022/01/24 06:00:10;;;;;;;11.70;6.68;;;5.50;99.90;;;;;;5027609;28;20512;-77
2022/01/24 06:02:36;;;;;;;12.43;7.38;;;5.50;99.90;;;;;;5011882;28;20084;-77
2022/01/24 06:05:03;;;;;;;11.30;7.25;;;5.40;99.90;;;;;;5044504;28;20726;-75
2022/01/24 06:07:28;;;;;;;14.20;7.18;;;5.40;99.90;;;;;;5045975;28;20044;-76
2022/01/24 06:09:54;;;;;;;12.95;7.22;;;5.40;99.90;;;;;;5045816;28;20056;-76
2022/01/24 06:12:20;;;;;;;16.52;8.75;;;5.40;99.90;;;;;;5044336;28;20464;-76
2022/01/24 06:14:46;;;;;;;12.45;7.15;;;5.50;99.90;;;;;;5046136;28;20124;-76
2022/01/24 06:17:11;;;;;;;14.23;7.53;;;5.50;99.90;;;;;;5043976;28;20502;-76
2022/01/24 06:19:38;;;;;;;17.95;8.38;;;5.40;99.90;;;;;;5027920;28;20037;-76
2022/01/24 06:22:04;;;;;;;14.57;8.00;;;5.40;99.90;;;;;;5045615;28;20033;-76
2022/01/24 06:24:29;;;;;;;12.50;7.85;;;5.40;99.90;;;;;;5043936;28;20059;-76
2022/01/24 06:26:55;;;;;;;16.50;8.43;;;5.40;99.90;;;;;;5044069;28;20048;-77
2022/01/24 06:29:21;;;;;;;12.80;8.10;;;5.40;99.90;;;;;;5027067;28;20049;-76
2022/01/24 06:31:47;;;;;;;13.00;7.45;;;5.40;99.90;;;;;;4995046;28;20087;-76
2022/01/24 06:34:12;;;;;;;14.77;7.72;;;5.40;99.90;;;;;;5027135;28;20080;-76
2022/01/24 06:36:38;;;;;;;13.68;7.28;;;5.40;99.90;;;;;;5043873;28;20091;-76
2022/01/24 06:39:05;;;;;;;12.80;7.55;;;5.40;99.90;;;;;;5027004;28;20041;-76
2022/01/24 06:41:34;;;;;;;13.25;7.30;;;5.40;99.90;;;;;;5027060;28;20052;-76
2022/01/24 06:44:02;;;;;;;13.05;7.30;;;5.30;99.90;;;;;;5043546;28;20053;-77
2022/01/24 06:46:28;;;;;;;11.32;7.60;;;5.40;99.90;;;;;;5043185;28;20053;-77
2022/01/24 06:48:54;;;;;;;14.65;7.72;;;5.30;99.90;;;;;;5027309;28;20041;-77
2022/01/24 06:51:21;;;;;;;12.90;8.25;;;5.30;99.90;;;;;;5043276;28;20390;-76
2022/01/24 06:53:48;;;;;;;14.13;7.65;;;5.30;99.90;;;;;;5043258;28;20053;-76
2022/01/24 06:56:14;;;;;;;12.25;7.43;;;5.30;99.90;;;;;;5043250;28;20078;-76
2022/01/24 06:58:40;;;;;;;15.75;7.47;;;5.40;99.90;;;;;;5026810;28;20059;-76
2022/01/24 07:01:07;;;;;;;13.00;7.47;;;5.30;99.90;;;;;;5010363;28;20045;-76
2022/01/24 07:03:33;;;;;;;14.60;8.65;;;5.30;99.90;;;;;;5042974;28;20118;-77
2022/01/24 07:05:59;;;;;;;13.65;7.85;;;5.30;99.90;;;;;;5026987;28;20048;-76
2022/01/24 07:08:25;;;;;;;12.18;6.80;;;5.30;99.90;;;;;;5042994;28;20049;-75
2022/01/24 07:10:51;;;;;;;14.15;8.20;;;5.30;99.90;;;;;;5043347;28;20051;-76
2022/01/24 07:13:20;;;;;;;13.18;7.68;;;5.30;99.90;;;;;;5042987;28;20504;-76
2022/01/24 07:16:07;;;;;;;12.65;7.43;;;5.30;99.90;;;;;;5045160;28;20094;-76
2022/01/24 07:21:01;;;;;;;12.10;8.25;;;5.30;99.90;;;;;;5043373;28;20409;-76
2022/01/24 07:23:27;;;;;;;13.23;7.13;;;5.30;99.90;;;;;;5044159;28;20045;-76
2022/01/24 07:25:54;;;;;;;14.05;7.63;;;5.30;99.90;;;;;;5042881;28;20503;-76
2022/01/24 07:28:20;;;;;;;10.57;6.80;;;5.30;99.90;;;;;;5043474;28;20487;-75
2022/01/24 07:30:46;;;;;;;11.25;7.68;;;5.30;99.90;;;;;;5042998;28;20094;-76
2022/01/24 07:33:16;;;;;;;13.20;7.72;;;5.30;99.90;;;;;;5026672;28;20067;-75
2022/01/24 07:35:44;;;;;;;13.40;6.88;;;5.30;99.90;;;;;;5043453;28;20044;-76
2022/01/24 07:38:10;;;;;;;12.60;7.40;;;5.80;99.90;;;;;;5042705;28;20052;-75
2022/01/24 07:40:42;;;;;;;13.75;7.50;;;5.30;99.90;;;;;;5042702;28;20057;-76
2022/01/24 07:43:10;;;;;;;12.10;7.20;;;5.30;99.90;;;;;;5027313;28;20037;-76
2022/01/24 07:45:38;;;;;;;13.85;7.45;;;5.30;99.90;;;;;;5043314;28;20111;-76
2022/01/24 07:48:04;;;;;;;11.18;6.97;;;5.30;99.90;;;;;;5044144;28;20045;-76
2022/01/24 07:50:29;;;;;;;13.30;7.65;;;5.30;99.90;;;;;;5042547;28;20056;-75
2022/01/24 07:52:56;;;;;;;13.30;7.03;;;5.30;99.90;;;;;;5042913;28;20044;-75
2022/01/24 07:55:22;;;;;;;11.98;6.85;;;5.30;99.90;;;;;;5042254;28;20090;-76
2022/01/24 07:57:49;;;;;;;14.85;7.55;;;5.40;99.90;;;;;;5042969;28;20193;-77
2022/01/24 08:00:15;;;;;;;12.15;6.85;;;5.30;99.90;;;;;;5042538;28;20044;-76
2022/01/24 08:02:41;;;;;;;12.18;7.00;;;5.30;99.90;;;;;;5043077;28;20124;-76
2022/01/24 08:05:08;;;;;;;14.52;6.78;;;5.30;99.90;;;;;;5042535;28;20045;-76
2022/01/24 08:07:35;;;;;;;12.25;7.38;;;5.30;99.90;;;;;;5043107;28;20065;-76
2022/01/24 08:10:01;;;;;;;11.10;7.20;;;6.30;99.90;;;;;;5043326;28;20064;-76
2022/01/24 08:12:27;;;;;;;11.93;6.93;;;5.30;99.90;;;;;;5025639;28;20502;-75
2022/01/24 08:14:53;;;;;;;11.68;7.65;;;5.30;99.90;;;;;;5026501;28;20089;-77
2022/01/24 08:17:19;;;;;;;12.02;6.82;;;5.30;99.90;;;;;;5043419;28;20041;-79
2022/01/24 08:19:46;;;;;;;12.23;7.25;;;5.30;99.90;;;;;;5047086;28;20053;-76
2022/01/24 08:22:13;;;;;;;12.80;7.07;;;5.70;99.90;;;;;;5046007;28;20056;-75
2022/01/24 08:24:39;;;;;;;12.20;7.28;;;6.70;99.90;;;;;;5047610;28;20041;-75
2022/01/24 08:27:05;;;;;;;12.02;6.30;;;5.30;99.90;;;;;;5048347;28;20053;-75
2022/01/24 08:29:31;;;;;;;12.10;6.60;;;5.40;99.90;;;;;;5047832;28;20064;-75
2022/01/24 08:31:57;;;;;;;13.95;5.78;;;5.80;99.90;;;;;;5048060;28;20048;-75
2022/01/24 08:34:23;;;;;;;16.75;6.53;;;5.40;99.90;;;;;;5047838;28;20040;-75
2022/01/24 08:36:48;;;;;;;11.20;6.60;;;5.40;99.90;;;;;;5047634;28;20037;-75
2022/01/24 08:39:14;;;;;;;12.27;6.22;;;5.80;99.90;;;;;;5047441;28;20458;-77
2022/01/24 08:44:21;;;;;;;10.73;6.75;;;5.40;99.90;;;;;;5048092;28;20052;-75
2022/01/24 08:46:48;;;;;;;10.38;6.82;;;5.40;99.90;;;;;;5047298;28;20041;-75
2022/01/24 08:49:14;;;;;;;13.07;6.90;;;5.40;99.90;;;;;;5046189;28;20049;-76
2022/01/24 08:51:40;;;;;;;14.10;7.25;;;5.40;99.90;;;;;;5045690;28;20055;-76
2022/01/24 08:54:07;;;;;;;10.88;6.55;;;5.40;99.90;;;;;;5029410;28;20502;-76
2022/01/24 08:56:34;;;;;;;11.07;6.43;;;5.50;99.90;;;;;;5046102;28;20033;-76
2022/01/24 08:59:01;;;;;;;9.90;6.18;;;4.20;99.90;;;;;;5045595;28;20037;-76
2022/01/24 09:01:28;;;;;;;15.43;7.15;;;5.50;99.90;;;;;;5029438;28;20116;-75
2022/01/24 09:03:53;;;;;;;18.30;7.38;;;5.50;99.90;;;;;;5045120;28;20049;-76
2022/01/24 09:06:21;;;;;;;13.30;7.10;;;5.50;99.90;;;;;;4996356;28;20094;-75
2022/01/24 09:08:55;;;;;;;13.70;7.50;;;5.50;99.90;;;;;;5045117;28;20079;-78
2022/01/24 09:11:23;;;;;;;14.57;7.55;;;5.70;99.90;;;;;;5045670;28;20130;-77
2022/01/24 09:13:49;;;;;;;14.93;8.77;;;5.60;99.90;;;;;;5030123;28;20045;-77
2022/01/24 09:16:14;;;;;;;13.25;7.75;;;5.60;99.90;;;;;;5045691;28;20064;-77
2022/01/24 09:18:40;;;;;;;17.17;7.47;;;5.60;99.90;;;;;;5045745;28;20500;-75
2022/01/24 09:21:06;;;;;;;12.25;7.50;;;5.60;99.90;;;;;;5028275;28;20040;-76
2022/01/24 09:23:32;;;;;;;16.00;8.70;;;5.60;99.90;;;;;;5028777;28;20042;-75
2022/01/24 09:25:58;;;;;;;11.50;7.93;;;5.60;99.90;;;;;;5012449;28;20119;-74
2022/01/24 09:28:23;;;;;;;15.88;8.38;;;5.60;99.90;;;;;;5045022;28;20045;-74
2022/01/24 09:30:50;;;;;;;12.30;7.78;;;5.60;99.90;;;;;;5044777;28;20052;-75
2022/01/24 09:33:16;;;;;;;15.55;9.25;;;5.70;99.90;;;;;;5045063;28;20126;-75
2022/01/24 09:35:43;;;;;;;13.40;8.60;;;5.60;99.90;;;;;;5045312;28;20056;-75
2022/01/24 09:38:09;;;;;;;15.45;9.30;;;5.70;99.90;;;;;;5044413;28;20082;-75
2022/01/24 09:40:35;;;;;;;14.82;9.27;;;5.70;99.90;;;;;;5046002;28;20061;-74
2022/01/24 09:43:01;;;;;;;18.80;10.55;;;5.70;99.90;;;;;;5028374;28;20075;-74
2022/01/24 09:45:27;;;;;;;19.73;10.65;;;5.70;99.90;;;;;;5044802;28;20045;-76
2022/01/24 09:47:53;;;;;;;17.55;10.32;;;5.70;99.90;;;;;;5044406;28;20056;-75
2022/01/24 09:50:20;;;;;;;23.33;12.27;;;5.70;99.90;;;;;;5044679;28;20099;-75
2022/01/24 09:52:48;;;;;;;20.98;10.93;;;5.80;99.90;;;;;;5012439;28;20449;-75
2022/01/24 09:55:16;;;;;;;16.40;10.77;;;5.50;99.90;;;;;;5044131;28;20111;-76
2022/01/24 09:57:42;;;;;;;16.65;9.90;;;5.80;99.90;;;;;;5028786;28;20385;-76
2022/01/24 10:00:12;;;;;;;18.90;11.90;;;5.80;99.90;;;;;;5027989;28;20076;-76
2022/01/24 10:02:39;;;;;;;19.02;11.02;;;5.80;99.90;;;;;;5044685;28;20045;-76
2022/01/24 10:05:20;;;;;;;21.80;11.88;;;5.80;99.90;;;;;;5027652;28;20486;-76
2022/01/24 10:07:57;;;;;;;24.08;12.55;;;5.80;99.90;;;;;;5044157;28;20060;-76
2022/01/24 10:10:52;;;;;;;23.30;13.15;;;5.90;99.90;;;;;;5044729;28;20102;-76
2022/01/24 10:16:33;;;;;;;24.63;12.68;;;5.90;99.90;;;;;;5044838;28;20083;-76
2022/01/24 10:19:08;;;;;;;27.55;14.30;;;5.90;99.90;;;;;;5044754;28;20045;-77
2022/01/24 10:21:46;;;;;;;27.08;15.00;;;5.90;99.90;;;;;;5043756;28;20041;-76
2022/01/24 10:24:33;;;;;;;25.33;13.77;;;5.90;99.90;;;;;;5043998;28;20044;-76
2022/01/24 10:27:05;;;;;;;34.08;14.02;;;5.90;99.90;;;;;;5033678;28;20651;-76
2022/01/24 10:29:31;;;;;;;28.83;14.27;;;5.90;99.90;;;;;;5043914;28;20048;-76
2022/01/24 10:31:57;;;;;;;26.90;14.52;;;6.00;99.90;;;;;;5010894;28;20583;-76
2022/01/24 10:34:34;;;;;;;27.92;15.60;;;6.00;99.90;;;;;;4994744;28;20095;-76
2022/01/24 10:37:01;;;;;;;26.52;14.75;;;6.00;99.90;;;;;;5027272;28;20139;-77
2022/01/24 10:44:54;;;;;;;28.95;16.15;;;6.00;99.90;;;;;;5043743;28;20128;-77
2022/01/24 10:47:28;;;;;;;31.02;16.80;;;6.00;99.90;;;;;;5043704;28;20048;-77
2022/01/24 10:49:55;;;;;;;28.30;15.82;;;6.00;99.90;;;;;;5044573;28;20505;-76
2022/01/24 10:52:27;;;;;;;34.28;17.90;;;6.00;99.90;;;;;;5045181;28;20056;-76
2022/01/24 10:55:10;;;;;;;31.08;16.70;;;6.10;99.90;;;;;;5045065;28;20526;-75
2022/01/24 10:57:36;;;;;;;31.85;15.55;;;6.10;99.90;;;;;;5043994;28;20053;-76
2022/01/24 11:00:11;;;;;;;30.27;16.45;;;6.40;99.90;;;;;;5044357;28;20053;-76
2022/01/24 11:02:41;;;;;;;33.75;17.10;;;6.10;99.90;;;;;;5043472;28;20080;-76
2022/01/24 11:05:19;;;;;;;31.08;17.00;;;6.10;99.90;;;;;;5011215;28;20282;-76
2022/01/24 11:07:57;;;;;;;28.88;15.90;;;6.10;99.90;;;;;;5043644;28;20549;-76
2022/01/24 11:10:26;;;;;;;30.05;15.57;;;6.10;99.90;;;;;;5044159;28;20675;-76
2022/01/24 11:12:52;;;;;;;32.63;16.20;;;6.10;99.90;;;;;;5043106;28;20094;-77
2022/01/24 11:15:19;;;;;;;35.53;17.40;;;6.10;99.90;;;;;;5043792;28;20048;-77
2022/01/24 11:17:48;;;;;;;30.42;17.63;;;6.10;99.90;;;;;;5043018;28;20048;-76
2022/01/24 11:20:18;;;;;;;33.80;18.27;;;6.10;99.90;;;;;;5043740;28;20112;-76
2022/01/24 11:22:57;;;;;;;33.83;18.10;;;6.10;99.90;;;;;;5044057;28;20413;-76
2022/01/24 11:25:24;;;;;;;35.92;17.85;;;6.10;99.90;;;;;;5043206;28;20514;-76
2022/01/24 11:27:50;;;;;;;33.83;17.27;;;6.10;99.90;;;;;;5042846;28;20056;-76
2022/01/24 11:30:28;;;;;;;35.80;18.92;;;6.10;99.90;;;;;;5010199;28;20055;-76
2022/01/24 11:32:59;;;;;;;32.53;17.63;;;6.60;99.90;;;;;;5042665;28;20066;-76
2022/01/24 11:35:51;;;;;;;36.25;19.17;;;6.30;99.90;;;;;;5025858;28;20087;-77
2022/01/24 11:38:29;;;;;;;38.88;18.25;;;6.20;99.90;;;;;;5042959;28;20049;-77
2022/01/24 11:41:21;;;;;;;33.83;18.73;;;6.10;99.90;;;;;;5026004;28;20103;-75
2022/01/24 11:43:50;;;;;;;39.58;19.05;;;6.20;99.90;;;;;;5042901;28;20090;-75
2022/01/24 11:46:48;;;;;;;39.90;19.85;;;6.10;99.90;;;;;;5043178;28;20133;-74
2022/01/24 11:49:15;;;;;;;35.72;18.63;;;6.10;99.90;;;;;;5044614;28;20053;-76
2022/01/24 11:51:49;;;;;;;37.38;17.55;;;6.10;99.90;;;;;;5042624;28;20128;-76
2022/01/24 11:54:32;;;;;;;38.10;17.83;;;6.10;99.90;;;;;;5030458;28;20049;-75
2022/01/24 11:57:31;;;;;;;25.17;13.37;;;6.10;99.90;;;;;;5047748;28;20041;-76
2022/01/24 12:00:07;;;;;;;33.22;16.88;;;6.10;99.90;;;;;;5046008;28;20517;-76
2022/01/24 12:02:54;;;;;;;32.78;16.60;;;6.10;99.90;;;;;;5046576;28;20052;-76
2022/01/24 12:05:41;;;;;;;34.63;18.13;;;6.10;99.90;;;;;;5046361;28;20136;-77
2022/01/24 12:08:10;;;;;;;32.33;17.73;;;6.10;99.90;;;;;;5047808;28;20069;-76
2022/01/24 12:10:43;;;;;;;37.47;19.00;;;6.10;99.90;;;;;;5030683;28;20040;-76
2022/01/24 12:13:17;;;;;;;;;;;6.10;99.90;;;;;;5048354;28;20073;-76
2022/01/24 12:15:43;;;;;;;34.17;16.83;;;6.10;99.90;;;;;;5046353;28;19920;-76
2022/01/24 12:18:10;;;;;;;33.65;17.42;;;6.80;99.90;;;;;;5046926;28;20082;-76
2022/01/24 12:20:36;;;;;;;30.83;16.55;;;6.10;99.90;;;;;;5045137;28;20552;-76
2022/01/24 12:23:27;;;;;;;30.50;16.80;;;6.10;99.90;;;;;;5046197;28;20049;-76
2022/01/24 12:26:06;;;;;;;29.10;15.60;;;6.10;99.90;;;;;;5037024;28;20064;-76
2022/01/24 12:28:45;;;;;;;27.83;15.20;;;6.10;99.90;;;;;;5046636;28;20102;-76
2022/01/24 12:31:49;;;;;;;24.55;14.70;;;6.10;99.90;;;;;;5046944;28;20068;-76
2022/01/24 12:34:35;;;;;;;27.13;14.80;;;6.10;99.90;;;;;;5042215;28;20056;-76
2022/01/24 12:37:27;;;;;;;26.35;14.40;;;6.10;99.90;;;;;;5029685;28;20443;-76
2022/01/24 12:40:01;;;;;;;28.58;15.98;;;6.10;99.90;;;;;;5046690;28;20422;-77
2022/01/24 12:42:49;;;;;;;31.58;16.05;;;6.10;99.90;;;;;;5046036;28;20040;-77
2022/01/24 12:48:08;;;;;;;30.58;14.93;;;6.10;99.90;;;;;;5046175;28;20240;-75
2022/01/24 12:50:34;;;;;;;30.50;15.65;;;6.10;99.90;;;;;;5045256;28;20045;-75
2022/01/24 12:53:00;;;;;;;29.92;16.05;;;6.10;99.90;;;;;;5046019;28;20048;-76
2022/01/24 12:55:26;;;;;;;29.80;15.10;;;6.10;99.90;;;;;;5045657;28;20052;-76
2022/01/24 12:57:51;;;;;;;27.50;14.75;;;6.10;99.90;;;;;;5029196;28;20118;-76
2022/01/24 13:00:18;;;;;;;23.77;13.77;;;6.10;99.90;;;;;;5028928;28;20075;-77
2022/01/24 13:02:45;;;;;;;33.03;17.02;;;6.10;99.90;;;;;;5012152;28;20045;-76
2022/01/24 13:05:16;;;;;;;25.58;15.02;;;6.10;99.90;;;;;;5029090;28;20091;-75
2022/01/24 13:07:53;;;;;;;31.70;15.98;;;6.10;99.90;;;;;;5028853;28;20064;-76
2022/01/24 13:10:22;;;;;;;30.52;15.93;;;6.10;99.90;;;;;;5045852;28;20037;-76
2022/01/24 13:13:01;;;;;;;23.35;13.90;;;6.80;99.90;;;;;;5045031;28;20041;-76
2022/01/24 13:21:09;;;;;;;28.88;14.45;;;7.10;99.90;;;;;;5045375;28;20056;-76
2022/01/24 13:23:39;;;;;;;28.25;14.30;;;6.10;99.90;;;;;;5046474;28;20089;-76
2022/01/24 13:26:06;;;;;;;30.38;15.30;;;6.10;99.90;;;;;;5046361;28;20072;-76
2022/01/24 13:28:33;;;;;;;30.42;14.90;;;6.10;99.90;;;;;;5044403;28;20518;-76
2022/01/24 13:31:03;;;;;;;24.88;14.70;;;6.10;99.90;;;;;;5047153;28;20045;-75
2022/01/24 13:33:32;;;;;;;26.02;14.60;;;6.00;99.90;;;;;;5045852;28;20041;-75
2022/01/24 13:36:08;;;;;;;24.08;13.55;;;6.00;99.90;;;;;;5044885;28;20477;-75
2022/01/24 13:38:49;;;;;;;27.08;14.98;;;6.10;99.90;;;;;;5046500;28;20449;-75
2022/01/24 13:41:21;;;;;;;26.63;15.85;;;6.10;99.90;;;;;;5042159;28;20064;-75
2022/01/24 13:43:54;;;;;;;24.83;14.10;;;6.10;99.90;;;;;;5046479;28;20048;-76
2022/01/24 13:46:22;;;;;;;33.00;16.25;;;6.00;99.90;;;;;;5046090;28;20044;-76
2022/01/24 13:48:52;;;;;;;26.52;14.45;;;5.90;99.90;;;;;;5046076;28;20045;-75
2022/01/24 13:51:26;;;;;;;31.92;16.13;;;5.90;99.90;;;;;;5045549;28;20045;-75
2022/01/24 13:53:51;;;;;;;27.33;15.32;;;5.90;99.90;;;;;;5046407;28;20049;-75
2022/01/24 13:56:26;;;;;;;25.30;14.40;;;5.90;99.90;;;;;;5045738;28;20037;-76
2022/01/24 13:59:12;;;;;;;31.25;15.00;;;5.90;99.90;;;;;;5044714;28;20049;-75
2022/01/24 14:01:50;;;;;;;30.08;14.05;;;5.90;99.90;;;;;;5044861;28;20441;-75
2022/01/24 14:04:48;;;;;;;27.38;14.50;;;5.90;99.90;;;;;;5043877;28;20055;-75
2022/01/24 14:07:23;;;;;;;25.30;14.35;;;5.50;99.90;;;;;;5045722;28;20055;-75
2022/01/24 14:09:52;;;;;;;24.00;14.65;;;5.90;99.90;;;;;;5046514;28;20049;-75
2022/01/24 14:12:30;;;;;;;27.00;13.80;;;5.90;99.90;;;;;;5045529;28;20048;-75
2022/01/24 14:15:05;;;;;;;24.38;14.02;;;5.90;99.90;;;;;;5045004;28;20490;-76
2022/01/24 14:20:15;;;;;;;25.17;14.57;;;5.80;99.90;;;;;;5044326;28;20048;-75
2022/01/24 14:22:41;;;;;;;27.70;15.52;;;5.80;99.90;;;;;;5028036;28;20044;-75
2022/01/24 14:25:12;;;;;;;23.00;13.57;;;6.30;99.90;;;;;;5045313;28;20041;-75
2022/01/24 14:27:59;;;;;;;24.75;13.65;;;5.80;99.90;;;;;;5044375;28;20563;-75
2022/01/24 14:30:31;;;;;;;25.85;14.10;;;5.80;99.90;;;;;;5045196;28;20052;-74
2022/01/24 14:33:04;;;;;;;25.45;13.73;;;5.80;99.90;;;;;;5045455;28;20060;-75
2022/01/24 14:35:35;;;;;;;27.83;14.00;;;5.80;99.90;;;;;;5044662;28;20044;-75
2022/01/24 14:38:01;;;;;;;24.58;13.57;;;5.80;99.90;;;;;;5043372;28;20064;-73
2022/01/24 14:40:52;;;;;;;29.63;14.57;;;5.70;99.90;;;;;;5010734;28;20145;-75
2022/01/24 14:46:27;;;;;;;27.05;13.93;;;5.70;99.90;;;;;;5043719;28;20540;-75
2022/01/24 14:48:58;;;;;;;27.30;14.80;;;5.70;99.90;;;;;;5027359;28;20478;-75
2022/01/24 14:51:30;;;;;;;26.52;14.13;;;5.70;99.90;;;;;;5043080;28;20061;-74
2022/01/24 14:53:58;;;;;;;33.95;14.00;;;5.70;99.90;;;;;;5045504;28;20041;-74
2022/01/24 14:56:25;;;;;;;25.80;14.30;;;5.70;99.90;;;;;;5045235;28;20049;-74
2022/01/24 14:58:51;;;;;;;25.63;13.25;;;5.70;99.90;;;;;;5044288;28;20482;-74
2022/01/24 15:01:18;;;;;;;23.83;12.95;;;5.70;99.90;;;;;;5043684;28;20049;-75
2022/01/24 15:03:45;;;;;;;30.80;14.98;;;5.70;99.90;;;;;;5026789;28;20045;-74
2022/01/24 15:06:13;;;;;;;30.02;14.43;;;5.70;99.90;;;;;;5026779;28;20094;-74
2022/01/24 15:08:41;;;;;;;28.55;15.00;;;6.40;99.90;;;;;;5043030;28;20207;-74